sensor_id;sensor_type;location;lat;lon;timestamp;P1;durP1;ratioP1;P2;durP2;ratioP2
20870;SDS011;10595;51.218;3.452;2023-08-12T00:00:31;12.93;;;7.73;;
20870;SDS011;10595;51.218;3.452;2023-08-12T00:02:57;13.37;;;7.60;;
20870;SDS011;10595;51.218;3.452;2023-08-12T00:05:24;9.57;;;6.53;;
20870;SDS011;10595;51.218;3.452;2023-08-12T00:07:50;11.50;;;7.57;;
20870;SDS011;10595;51.218;3.452;2023-08-12T00:10:16;11.10;;;7.53;;
20870;SDS011;10595;51.218;3.452;2023-08-12T00:12:42;14.07;;;7.40;;
20870;SDS011;10595;51.218;3.452;2023-08-12T00:15:08;14.13;;;8.17;;
20870;SDS011;10595;51.218;3.452;2023-08-12T00:17:35;12.70;;;7.90;;
20870;SDS011;10595;51.218;3.452;2023-08-12T00:20:02;11.37;;;7.77;;
20870;SDS011;10595;51.218;3.452;2023-08-12T00:22:33;13.13;;;7.70;;
20870;SDS011;10595;51.218;3.452;2023-08-12T00:24:59;12.43;;;7.30;;
20870;SDS011;10595;51.218;3.452;2023-08-12T00:27:25;10.60;;;7.77;;
20870;SDS011;10595;51.218;3.452;2023-08-12T00:29:51;12.40;;;8.43;;
20870;SDS011;10595;51.218;3.452;2023-08-12T00:32:17;12.23;;;6.87;;
20870;SDS011;10595;51.218;3.452;2023-08-12T00:34:43;10.80;;;7.70;;
20870;SDS011;10595;51.218;3.452;2023-08-12T00:37:09;11.63;;;7.37;;
20870;SDS011;10595;51.218;3.452;2023-08-12T00:39:35;12.87;;;6.87;;
20870;SDS011;10595;51.218;3.452;2023-08-12T00:42:01;10.50;;;6.93;;
20870;SDS011;10595;51.218;3.452;2023-08-12T00:44:27;14.53;;;7.77;;
20870;SDS011;10595;51.218;3.452;2023-08-12T00:46:53;11.60;;;7.50;;
20870;SDS011;10595;51.218;3.452;2023-08-12T00:49:20;13.30;;;7.50;;
20870;SDS011;10595;51.218;3.452;2023-08-12T00:51:46;11.03;;;7.27;;
20870;SDS011;10595;51.218;3.452;2023-08-12T00:54:14;10.53;;;6.83;;
20870;SDS011;10595;51.218;3.452;2023-08-12T00:56:40;9.27;;;7.30;;
20870;SDS011;10595;51.218;3.452;2023-08-12T00:59:07;15.23;;;7.10;;
20870;SDS011;10595;51.218;3.452;2023-08-12T01:01:38;12.40;;;7.77;;
20870;SDS011;10595;51.218;3.452;2023-08-12T01:04:06;13.77;;;8.37;;
20870;SDS011;10595;51.218;3.452;2023-08-12T01:06:32;13.33;;;7.63;;
20870;SDS011;10595;51.218;3.452;2023-08-12T01:08:58;12.93;;;7.40;;
20870;SDS011;10595;51.218;3.452;2023-08-12T01:14:22;12.67;;;7.90;;
20870;SDS011;10595;51.218;3.452;2023-08-12T01:16:49;11.00;;;7.20;;
20870;SDS011;10595;51.218;3.452;2023-08-12T01:22:01;14.97;;;7.60;;
20870;SDS011;10595;51.218;3.452;2023-08-12T01:24:33;11.87;;;7.30;;
20870;SDS011;10595;51.218;3.452;2023-08-12T01:27:00;11.33;;;7.27;;
20870;SDS011;10595;51.218;3.452;2023-08-12T01:29:26;12.63;;;6.60;;
20870;SDS011;10595;51.218;3.452;2023-08-12T01:31:58;10.27;;;6.53;;
20870;SDS011;10595;51.218;3.452;2023-08-12T01:34:32;11.17;;;6.70;;
20870;SDS011;10595;51.218;3.452;2023-08-12T01:36:59;13.03;;;6.77;;
20870;SDS011;10595;51.218;3.452;2023-08-12T01:39:26;11.47;;;6.07;;
20870;SDS011;10595;51.218;3.452;2023-08-12T01:41:52;10.17;;;5.93;;
20870;SDS011;10595;51.218;3.452;2023-08-12T01:44:19;11.37;;;6.70;;
20870;SDS011;10595;51.218;3.452;2023-08-12T01:46:46;12.17;;;6.30;;
20870;SDS011;10595;51.218;3.452;2023-08-12T01:49:12;8.37;;;5.13;;
20870;SDS011;10595;51.218;3.452;2023-08-12T01:51:38;10.87;;;5.50;;
20870;SDS011;10595;51.218;3.452;2023-08-12T01:54:04;7.13;;;4.47;;
20870;SDS011;10595;51.218;3.452;2023-08-12T01:56:30;8.80;;;4.50;;
20870;SDS011;10595;51.218;3.452;2023-08-12T01:58:56;9.27;;;4.97;;
20870;SDS011;10595;51.218;3.452;2023-08-12T02:01:22;13.27;;;4.90;;
20870;SDS011;10595;51.218;3.452;2023-08-12T02:03:48;6.73;;;4.37;;
20870;SDS011;10595;51.218;3.452;2023-08-12T02:06:14;9.03;;;4.60;;
20870;SDS011;10595;51.218;3.452;2023-08-12T02:08:40;11.50;;;4.77;;
20870;SDS011;10595;51.218;3.452;2023-08-12T02:11:06;9.70;;;4.60;;
20870;SDS011;10595;51.218;3.452;2023-08-12T02:13:32;9.63;;;4.10;;
20870;SDS011;10595;51.218;3.452;2023-08-12T02:15:58;9.37;;;3.80;;
20870;SDS011;10595;51.218;3.452;2023-08-12T02:18:24;12.20;;;4.37;;
20870;SDS011;10595;51.218;3.452;2023-08-12T02:20:50;6.97;;;3.50;;
20870;SDS011;10595;51.218;3.452;2023-08-12T02:23:16;8.03;;;3.80;;
20870;SDS011;10595;51.218;3.452;2023-08-12T02:25:42;8.17;;;3.70;;
20870;SDS011;10595;51.218;3.452;2023-08-12T02:28:08;7.13;;;4.30;;
20870;SDS011;10595;51.218;3.452;2023-08-12T02:30:34;8.07;;;3.60;;
20870;SDS011;10595;51.218;3.452;2023-08-12T02:33:00;6.07;;;3.70;;
20870;SDS011;10595;51.218;3.452;2023-08-12T02:35:26;6.90;;;3.43;;
20870;SDS011;10595;51.218;3.452;2023-08-12T02:37:52;6.20;;;4.00;;
20870;SDS011;10595;51.218;3.452;2023-08-12T02:40:18;5.93;;;3.50;;
20870;SDS011;10595;51.218;3.452;2023-08-12T02:42:44;6.30;;;3.27;;
20870;SDS011;10595;51.218;3.452;2023-08-12T02:45:10;5.47;;;3.40;;
20870;SDS011;10595;51.218;3.452;2023-08-12T02:47:36;5.30;;;3.60;;
20870;SDS011;10595;51.218;3.452;2023-08-12T02:50:02;6.00;;;3.03;;
20870;SDS011;10595;51.218;3.452;2023-08-12T02:52:28;3.97;;;2.97;;
20870;SDS011;10595;51.218;3.452;2023-08-12T02:54:54;5.47;;;2.77;;
20870;SDS011;10595;51.218;3.452;2023-08-12T02:57:21;5.77;;;3.20;;
20870;SDS011;10595;51.218;3.452;2023-08-12T02:59:47;6.47;;;3.57;;
20870;SDS011;10595;51.218;3.452;2023-08-12T03:02:13;7.80;;;3.30;;
20870;SDS011;10595;51.218;3.452;2023-08-12T03:04:41;5.13;;;2.90;;
20870;SDS011;10595;51.218;3.452;2023-08-12T03:07:07;7.90;;;3.23;;
20870;SDS011;10595;51.218;3.452;2023-08-12T03:09:33;5.63;;;3.40;;
20870;SDS011;10595;51.218;3.452;2023-08-12T03:11:59;7.70;;;3.70;;
20870;SDS011;10595;51.218;3.452;2023-08-12T03:14:28;4.40;;;3.63;;
20870;SDS011;10595;51.218;3.452;2023-08-12T03:16:55;6.50;;;3.90;;
20870;SDS011;10595;51.218;3.452;2023-08-12T03:19:21;7.40;;;4.00;;
20870;SDS011;10595;51.218;3.452;2023-08-12T03:21:47;8.13;;;4.13;;
20870;SDS011;10595;51.218;3.452;2023-08-12T03:24:13;6.20;;;4.20;;
20870;SDS011;10595;51.218;3.452;2023-08-12T03:26:39;8.93;;;4.40;;
20870;SDS011;10595;51.218;3.452;2023-08-12T03:29:05;6.00;;;4.23;;
20870;SDS011;10595;51.218;3.452;2023-08-12T03:31:31;8.70;;;5.13;;
20870;SDS011;10595;51.218;3.452;2023-08-12T03:33:57;10.33;;;5.73;;
20870;SDS011;10595;51.218;3.452;2023-08-12T03:36:23;10.67;;;6.27;;
20870;SDS011;10595;51.218;3.452;2023-08-12T03:38:49;10.53;;;6.97;;
20870;SDS011;10595;51.218;3.452;2023-08-12T03:41:15;9.43;;;5.90;;
20870;SDS011;10595;51.218;3.452;2023-08-12T03:43:41;12.10;;;6.20;;
20870;SDS011;10595;51.218;3.452;2023-08-12T03:46:07;9.73;;;6.50;;
20870;SDS011;10595;51.218;3.452;2023-08-12T03:48:33;8.27;;;5.97;;
20870;SDS011;10595;51.218;3.452;2023-08-12T03:50:59;7.90;;;6.13;;
20870;SDS011;10595;51.218;3.452;2023-08-12T03:53:25;8.70;;;6.60;;
20870;SDS011;10595;51.218;3.452;2023-08-12T03:55:51;8.77;;;5.90;;
20870;SDS011;10595;51.218;3.452;2023-08-12T03:58:17;9.80;;;5.87;;
20870;SDS011;10595;51.218;3.452;2023-08-12T04:00:43;9.53;;;7.13;;
20870;SDS011;10595;51.218;3.452;2023-08-12T04:03:09;8.10;;;6.03;;
20870;SDS011;10595;51.218;3.452;2023-08-12T04:05:35;9.07;;;5.87;;
20870;SDS011;10595;51.218;3.452;2023-08-12T04:08:01;8.43;;;6.00;;
20870;SDS011;10595;51.218;3.452;2023-08-12T04:10:27;8.63;;;5.93;;
20870;SDS011;10595;51.218;3.452;2023-08-12T04:12:53;5.67;;;5.00;;
20870;SDS011;10595;51.218;3.452;2023-08-12T04:15:39;7.07;;;5.60;;
20870;SDS011;10595;51.218;3.452;2023-08-12T04:21:08;6.70;;;5.00;;
20870;SDS011;10595;51.218;3.452;2023-08-12T04:23:34;10.00;;;5.53;;
20870;SDS011;10595;51.218;3.452;2023-08-12T04:26:00;6.90;;;4.93;;
20870;SDS011;10595;51.218;3.452;2023-08-12T04:28:26;8.47;;;5.30;;
20870;SDS011;10595;51.218;3.452;2023-08-12T04:30:52;5.43;;;4.50;;
20870;SDS011;10595;51.218;3.452;2023-08-12T04:33:18;5.40;;;4.90;;
20870;SDS011;10595;51.218;3.452;2023-08-12T04:35:45;6.83;;;4.60;;
20870;SDS011;10595;51.218;3.452;2023-08-12T04:38:11;5.07;;;4.57;;
20870;SDS011;10595;51.218;3.452;2023-08-12T04:40:40;6.23;;;5.40;;
20870;SDS011;10595;51.218;3.452;2023-08-12T04:43:07;5.73;;;5.13;;
20870;SDS011;10595;51.218;3.452;2023-08-12T04:45:33;5.37;;;4.50;;
20870;SDS011;10595;51.218;3.452;2023-08-12T04:47:59;5.20;;;4.70;;
20870;SDS011;10595;51.218;3.452;2023-08-12T04:50:25;7.70;;;5.10;;
20870;SDS011;10595;51.218;3.452;2023-08-12T04:52:51;4.97;;;4.47;;
20870;SDS011;10595;51.218;3.452;2023-08-12T04:55:17;5.60;;;5.00;;
20870;SDS011;10595;51.218;3.452;2023-08-12T04:57:43;6.23;;;5.07;;
20870;SDS011;10595;51.218;3.452;2023-08-12T05:00:09;5.40;;;4.90;;
20870;SDS011;10595;51.218;3.452;2023-08-12T05:02:36;6.43;;;5.00;;
20870;SDS011;10595;51.218;3.452;2023-08-12T05:05:02;4.80;;;4.27;;
20870;SDS011;10595;51.218;3.452;2023-08-12T05:07:28;7.47;;;2.73;;
20870;SDS011;10595;51.218;3.452;2023-08-12T05:09:55;3.93;;;1.50;;
20870;SDS011;10595;51.218;3.452;2023-08-12T05:12:21;6.10;;;1.80;;
20870;SDS011;10595;51.218;3.452;2023-08-12T05:14:47;6.63;;;1.70;;
20870;SDS011;10595;51.218;3.452;2023-08-12T05:17:13;3.80;;;1.53;;
20870;SDS011;10595;51.218;3.452;2023-08-12T05:19:40;7.10;;;1.80;;
20870;SDS011;10595;51.218;3.452;2023-08-12T05:22:06;4.30;;;1.80;;
20870;SDS011;10595;51.218;3.452;2023-08-12T05:24:32;6.30;;;1.80;;
20870;SDS011;10595;51.218;3.452;2023-08-12T05:26:58;5.23;;;1.73;;
20870;SDS011;10595;51.218;3.452;2023-08-12T05:29:24;5.47;;;2.00;;
20870;SDS011;10595;51.218;3.452;2023-08-12T05:31:50;4.03;;;1.60;;
20870;SDS011;10595;51.218;3.452;2023-08-12T05:34:16;4.10;;;1.93;;
20870;SDS011;10595;51.218;3.452;2023-08-12T05:36:42;4.90;;;1.90;;
20870;SDS011;10595;51.218;3.452;2023-08-12T05:39:08;4.90;;;1.50;;
20870;SDS011;10595;51.218;3.452;2023-08-12T05:41:34;4.40;;;1.80;;
20870;SDS011;10595;51.218;3.452;2023-08-12T05:44:00;3.97;;;1.60;;
20870;SDS011;10595;51.218;3.452;2023-08-12T05:46:26;3.43;;;1.63;;
20870;SDS011;10595;51.218;3.452;2023-08-12T05:48:52;5.43;;;1.97;;
20870;SDS011;10595;51.218;3.452;2023-08-12T05:51:18;4.73;;;1.80;;
20870;SDS011;10595;51.218;3.452;2023-08-12T05:53:44;7.13;;;2.00;;
20870;SDS011;10595;51.218;3.452;2023-08-12T05:56:10;6.23;;;1.80;;
20870;SDS011;10595;51.218;3.452;2023-08-12T05:58:36;8.13;;;2.33;;
20870;SDS011;10595;51.218;3.452;2023-08-12T06:01:02;5.10;;;1.50;;
20870;SDS011;10595;51.218;3.452;2023-08-12T06:03:28;5.50;;;1.50;;
20870;SDS011;10595;51.218;3.452;2023-08-12T06:05:55;7.27;;;1.80;;
20870;SDS011;10595;51.218;3.452;2023-08-12T06:08:21;7.53;;;1.53;;
20870;SDS011;10595;51.218;3.452;2023-08-12T06:10:47;5.87;;;1.67;;
20870;SDS011;10595;51.218;3.452;2023-08-12T06:13:13;4.03;;;1.57;;
20870;SDS011;10595;51.218;3.452;2023-08-12T06:15:39;5.83;;;1.90;;
20870;SDS011;10595;51.218;3.452;2023-08-12T06:18:05;6.83;;;2.00;;
20870;SDS011;10595;51.218;3.452;2023-08-12T06:20:31;5.77;;;1.53;;
20870;SDS011;10595;51.218;3.452;2023-08-12T06:22:57;5.43;;;1.50;;
20870;SDS011;10595;51.218;3.452;2023-08-12T06:25:23;6.50;;;2.17;;
20870;SDS011;10595;51.218;3.452;2023-08-12T06:27:49;3.60;;;1.60;;
20870;SDS011;10595;51.218;3.452;2023-08-12T06:30:15;4.80;;;1.43;;
20870;SDS011;10595;51.218;3.452;2023-08-12T06:32:41;7.30;;;1.40;;
20870;SDS011;10595;51.218;3.452;2023-08-12T06:35:07;7.70;;;2.40;;
20870;SDS011;10595;51.218;3.452;2023-08-12T06:37:34;6.80;;;1.63;;
20870;SDS011;10595;51.218;3.452;2023-08-12T06:40:00;4.30;;;1.83;;
20870;SDS011;10595;51.218;3.452;2023-08-12T06:42:26;7.00;;;2.27;;
20870;SDS011;10595;51.218;3.452;2023-08-12T06:44:58;4.10;;;1.70;;
20870;SDS011;10595;51.218;3.452;2023-08-12T06:47:24;7.80;;;2.33;;
20870;SDS011;10595;51.218;3.452;2023-08-12T06:49:52;5.37;;;2.53;;
20870;SDS011;10595;51.218;3.452;2023-08-12T06:52:18;6.47;;;2.40;;
20870;SDS011;10595;51.218;3.452;2023-08-12T06:54:44;5.03;;;2.50;;
20870;SDS011;10595;51.218;3.452;2023-08-12T06:57:10;6.63;;;2.70;;
20870;SDS011;10595;51.218;3.452;2023-08-12T06:59:37;6.67;;;3.10;;
20870;SDS011;10595;51.218;3.452;2023-08-12T07:02:03;8.00;;;3.30;;
20870;SDS011;10595;51.218;3.452;2023-08-12T07:04:29;7.90;;;3.30;;
20870;SDS011;10595;51.218;3.452;2023-08-12T07:06:55;8.90;;;3.67;;
20870;SDS011;10595;51.218;3.452;2023-08-12T07:09:21;10.57;;;3.70;;
20870;SDS011;10595;51.218;3.452;2023-08-12T07:11:47;10.23;;;4.03;;
20870;SDS011;10595;51.218;3.452;2023-08-12T07:14:13;9.37;;;4.17;;
20870;SDS011;10595;51.218;3.452;2023-08-12T07:16:39;8.53;;;3.80;;
20870;SDS011;10595;51.218;3.452;2023-08-12T07:19:05;7.00;;;3.23;;
20870;SDS011;10595;51.218;3.452;2023-08-12T07:21:31;7.83;;;3.03;;
20870;SDS011;10595;51.218;3.452;2023-08-12T07:23:57;4.87;;;3.07;;
20870;SDS011;10595;51.218;3.452;2023-08-12T07:26:23;7.90;;;2.83;;
20870;SDS011;10595;51.218;3.452;2023-08-12T07:28:49;9.13;;;3.17;;
20870;SDS011;10595;51.218;3.452;2023-08-12T07:31:15;6.80;;;2.83;;
20870;SDS011;10595;51.218;3.452;2023-08-12T07:33:41;7.77;;;3.30;;
20870;SDS011;10595;51.218;3.452;2023-08-12T07:36:07;5.93;;;2.93;;
20870;SDS011;10595;51.218;3.452;2023-08-12T07:38:33;6.37;;;2.70;;
20870;SDS011;10595;51.218;3.452;2023-08-12T07:40:59;6.30;;;3.63;;
20870;SDS011;10595;51.218;3.452;2023-08-12T07:43:25;6.37;;;3.50;;
20870;SDS011;10595;51.218;3.452;2023-08-12T07:45:52;6.37;;;3.50;;
20870;SDS011;10595;51.218;3.452;2023-08-12T07:48:18;6.37;;;4.17;;
20870;SDS011;10595;51.218;3.452;2023-08-12T07:50:44;8.03;;;4.07;;
20870;SDS011;10595;51.218;3.452;2023-08-12T07:53:13;10.70;;;5.20;;
20870;SDS011;10595;51.218;3.452;2023-08-12T07:55:40;9.73;;;5.27;;
20870;SDS011;10595;51.218;3.452;2023-08-12T07:58:06;16.27;;;9.30;;
20870;SDS011;10595;51.218;3.452;2023-08-12T08:00:32;17.13;;;10.03;;
20870;SDS011;10595;51.218;3.452;2023-08-12T08:02:58;19.87;;;10.70;;
20870;SDS011;10595;51.218;3.452;2023-08-12T08:05:24;16.00;;;10.40;;
20870;SDS011;10595;51.218;3.452;2023-08-12T08:07:51;17.80;;;10.37;;
20870;SDS011;10595;51.218;3.452;2023-08-12T08:10:17;15.57;;;9.50;;
20870;SDS011;10595;51.218;3.452;2023-08-12T08:12:43;16.03;;;9.27;;
20870;SDS011;10595;51.218;3.452;2023-08-12T08:15:09;19.47;;;8.43;;
20870;SDS011;10595;51.218;3.452;2023-08-12T08:17:35;12.80;;;7.87;;
20870;SDS011;10595;51.218;3.452;2023-08-12T08:20:02;11.23;;;8.03;;
20870;SDS011;10595;51.218;3.452;2023-08-12T08:22:28;12.13;;;7.80;;
20870;SDS011;10595;51.218;3.452;2023-08-12T08:24:54;15.03;;;9.00;;
20870;SDS011;10595;51.218;3.452;2023-08-12T08:27:20;15.57;;;9.17;;
20870;SDS011;10595;51.218;3.452;2023-08-12T08:29:46;14.63;;;8.90;;
20870;SDS011;10595;51.218;3.452;2023-08-12T08:32:12;17.60;;;9.50;;
20870;SDS011;10595;51.218;3.452;2023-08-12T08:34:38;13.00;;;8.77;;
20870;SDS011;10595;51.218;3.452;2023-08-12T08:37:04;15.63;;;9.07;;
20870;SDS011;10595;51.218;3.452;2023-08-12T08:39:30;13.33;;;7.70;;
20870;SDS011;10595;51.218;3.452;2023-08-12T08:41:56;14.53;;;8.00;;
20870;SDS011;10595;51.218;3.452;2023-08-12T08:44:24;10.63;;;7.83;;
20870;SDS011;10595;51.218;3.452;2023-08-12T08:46:54;12.77;;;6.97;;
20870;SDS011;10595;51.218;3.452;2023-08-12T08:49:20;11.63;;;7.73;;
20870;SDS011;10595;51.218;3.452;2023-08-12T08:51:47;11.47;;;7.93;;
20870;SDS011;10595;51.218;3.452;2023-08-12T08:54:13;12.03;;;7.97;;
20870;SDS011;10595;51.218;3.452;2023-08-12T08:56:39;11.30;;;7.70;;
20870;SDS011;10595;51.218;3.452;2023-08-12T08:59:05;12.43;;;7.57;;
20870;SDS011;10595;51.218;3.452;2023-08-12T09:01:31;12.63;;;8.50;;
20870;SDS011;10595;51.218;3.452;2023-08-12T09:03:57;11.33;;;9.23;;
20870;SDS011;10595;51.218;3.452;2023-08-12T09:06:24;15.10;;;9.90;;
20870;SDS011;10595;51.218;3.452;2023-08-12T09:08:52;11.47;;;9.50;;
20870;SDS011;10595;51.218;3.452;2023-08-12T09:11:18;10.20;;;8.93;;
20870;SDS011;10595;51.218;3.452;2023-08-12T09:13:45;13.20;;;8.53;;
20870;SDS011;10595;51.218;3.452;2023-08-12T09:16:11;12.17;;;8.90;;
20870;SDS011;10595;51.218;3.452;2023-08-12T09:18:37;13.57;;;8.60;;
20870;SDS011;10595;51.218;3.452;2023-08-12T09:21:03;8.43;;;5.53;;
20870;SDS011;10595;51.218;3.452;2023-08-12T09:23:39;7.50;;;4.20;;
20870;SDS011;10595;51.218;3.452;2023-08-12T09:26:15;7.33;;;3.83;;
20870;SDS011;10595;51.218;3.452;2023-08-12T09:28:42;5.80;;;3.50;;
20870;SDS011;10595;51.218;3.452;2023-08-12T09:31:21;8.53;;;3.30;;
20870;SDS011;10595;51.218;3.452;2023-08-12T09:33:48;7.37;;;2.50;;
20870;SDS011;10595;51.218;3.452;2023-08-12T09:36:15;9.40;;;2.97;;
20870;SDS011;10595;51.218;3.452;2023-08-12T09:38:41;10.03;;;2.67;;
20870;SDS011;10595;51.218;3.452;2023-08-12T09:41:08;9.47;;;2.83;;
20870;SDS011;10595;51.218;3.452;2023-08-12T09:43:34;10.13;;;3.07;;
20870;SDS011;10595;51.218;3.452;2023-08-12T09:46:00;7.03;;;2.33;;
20870;SDS011;10595;51.218;3.452;2023-08-12T09:48:26;7.40;;;2.80;;
20870;SDS011;10595;51.218;3.452;2023-08-12T09:50:52;6.90;;;2.70;;
20870;SDS011;10595;51.218;3.452;2023-08-12T09:53:19;8.33;;;2.20;;
20870;SDS011;10595;51.218;3.452;2023-08-12T09:55:46;8.57;;;2.53;;
20870;SDS011;10595;51.218;3.452;2023-08-12T09:58:13;7.23;;;2.77;;
20870;SDS011;10595;51.218;3.452;2023-08-12T10:00:41;6.10;;;2.30;;
20870;SDS011;10595;51.218;3.452;2023-08-12T10:03:08;10.07;;;3.20;;
20870;SDS011;10595;51.218;3.452;2023-08-12T10:05:35;7.83;;;2.13;;
20870;SDS011;10595;51.218;3.452;2023-08-12T10:08:02;7.00;;;2.57;;
20870;SDS011;10595;51.218;3.452;2023-08-12T10:10:29;4.90;;;1.70;;
20870;SDS011;10595;51.218;3.452;2023-08-12T10:12:55;5.73;;;1.93;;
20870;SDS011;10595;51.218;3.452;2023-08-12T10:15:21;7.47;;;1.87;;
20870;SDS011;10595;51.218;3.452;2023-08-12T10:17:48;10.17;;;2.17;;
20870;SDS011;10595;51.218;3.452;2023-08-12T10:20:20;3.87;;;1.57;;
20870;SDS011;10595;51.218;3.452;2023-08-12T10:22:47;5.90;;;1.80;;
20870;SDS011;10595;51.218;3.452;2023-08-12T10:25:14;6.03;;;2.00;;
20870;SDS011;10595;51.218;3.452;2023-08-12T10:27:40;5.33;;;2.30;;
20870;SDS011;10595;51.218;3.452;2023-08-12T10:30:06;5.63;;;2.00;;
20870;SDS011;10595;51.218;3.452;2023-08-12T10:32:33;6.90;;;2.13;;
20870;SDS011;10595;51.218;3.452;2023-08-12T10:34:59;5.97;;;2.30;;
20870;SDS011;10595;51.218;3.452;2023-08-12T10:37:26;4.33;;;1.90;;
20870;SDS011;10595;51.218;3.452;2023-08-12T10:39:52;6.33;;;1.90;;
20870;SDS011;10595;51.218;3.452;2023-08-12T10:45:04;6.78;;;1.67;;
20870;SDS011;10595;51.218;3.452;2023-08-12T10:47:33;5.05;;;1.55;;
20870;SDS011;10595;51.218;3.452;2023-08-12T10:50:03;5.60;;;1.67;;
20870;SDS011;10595;51.218;3.452;2023-08-12T10:52:30;6.53;;;1.60;;
20870;SDS011;10595;51.218;3.452;2023-08-12T10:57:42;5.07;;;1.77;;
20870;SDS011;10595;51.218;3.452;2023-08-12T11:00:13;9.43;;;2.65;;
20870;SDS011;10595;51.218;3.452;2023-08-12T11:02:39;5.50;;;1.67;;
20870;SDS011;10595;51.218;3.452;2023-08-12T11:05:09;4.28;;;1.92;;
20870;SDS011;10595;51.218;3.452;2023-08-12T11:10:05;5.88;;;2.25;;
20870;SDS011;10595;51.218;3.452;2023-08-12T11:12:35;7.03;;;1.67;;
20870;SDS011;10595;51.218;3.452;2023-08-12T11:15:03;6.32;;;1.92;;
20870;SDS011;10595;51.218;3.452;2023-08-12T11:17:30;8.15;;;2.15;;
20870;SDS011;10595;51.218;3.452;2023-08-12T11:19:57;4.90;;;1.90;;
20870;SDS011;10595;51.218;3.452;2023-08-12T11:22:25;6.07;;;1.60;;
20870;SDS011;10595;51.218;3.452;2023-08-12T11:24:51;9.80;;;2.38;;
20870;SDS011;10595;51.218;3.452;2023-08-12T11:27:17;5.10;;;1.63;;
20870;SDS011;10595;51.218;3.452;2023-08-12T11:29:43;5.75;;;1.90;;
20870;SDS011;10595;51.218;3.452;2023-08-12T11:32:09;6.15;;;1.70;;
20870;SDS011;10595;51.218;3.452;2023-08-12T11:34:36;4.30;;;1.80;;
20870;SDS011;10595;51.218;3.452;2023-08-12T11:37:02;4.90;;;1.70;;
20870;SDS011;10595;51.218;3.452;2023-08-12T11:39:29;6.87;;;1.50;;
20870;SDS011;10595;51.218;3.452;2023-08-12T11:41:55;5.00;;;1.70;;
20870;SDS011;10595;51.218;3.452;2023-08-12T11:44:22;6.65;;;1.60;;
20870;SDS011;10595;51.218;3.452;2023-08-12T11:46:49;3.73;;;1.30;;
20870;SDS011;10595;51.218;3.452;2023-08-12T11:49:15;6.35;;;1.75;;
20870;SDS011;10595;51.218;3.452;2023-08-12T11:51:42;4.10;;;1.40;;
20870;SDS011;10595;51.218;3.452;2023-08-12T11:54:09;4.13;;;1.58;;
20870;SDS011;10595;51.218;3.452;2023-08-12T11:56:35;5.88;;;1.38;;
20870;SDS011;10595;51.218;3.452;2023-08-12T11:59:02;8.48;;;1.85;;
20870;SDS011;10595;51.218;3.452;2023-08-12T12:01:28;6.43;;;1.65;;
20870;SDS011;10595;51.218;3.452;2023-08-12T12:03:54;7.05;;;1.60;;
20870;SDS011;10595;51.218;3.452;2023-08-12T12:08:55;5.20;;;1.88;;
20870;SDS011;10595;51.218;3.452;2023-08-12T12:11:21;7.57;;;1.98;;
20870;SDS011;10595;51.218;3.452;2023-08-12T12:13:47;8.23;;;2.37;;
20870;SDS011;10595;51.218;3.452;2023-08-12T12:16:13;8.23;;;2.40;;
20870;SDS011;10595;51.218;3.452;2023-08-12T12:18:40;8.67;;;2.07;;
20870;SDS011;10595;51.218;3.452;2023-08-12T12:21:06;7.47;;;2.00;;
20870;SDS011;10595;51.218;3.452;2023-08-12T12:23:32;10.10;;;2.70;;
20870;SDS011;10595;51.218;3.452;2023-08-12T12:26:01;7.57;;;2.20;;
20870;SDS011;10595;51.218;3.452;2023-08-12T12:28:27;8.63;;;2.30;;
20870;SDS011;10595;51.218;3.452;2023-08-12T12:30:53;6.38;;;2.00;;
20870;SDS011;10595;51.218;3.452;2023-08-12T12:33:19;8.73;;;2.05;;
20870;SDS011;10595;51.218;3.452;2023-08-12T12:35:45;12.25;;;2.42;;
20870;SDS011;10595;51.218;3.452;2023-08-12T12:38:11;4.90;;;2.35;;
20870;SDS011;10595;51.218;3.452;2023-08-12T12:40:37;6.90;;;2.17;;
20870;SDS011;10595;51.218;3.452;2023-08-12T12:43:03;4.68;;;1.77;;
20870;SDS011;10595;51.218;3.452;2023-08-12T12:45:29;8.95;;;2.20;;
20870;SDS011;10595;51.218;3.452;2023-08-12T12:47:55;8.10;;;2.10;;
20870;SDS011;10595;51.218;3.452;2023-08-12T12:50:21;10.65;;;2.72;;
20870;SDS011;10595;51.218;3.452;2023-08-12T12:52:47;6.97;;;2.10;;
20870;SDS011;10595;51.218;3.452;2023-08-12T12:55:13;10.82;;;2.17;;
20870;SDS011;10595;51.218;3.452;2023-08-12T12:57:39;10.48;;;2.00;;
20870;SDS011;10595;51.218;3.452;2023-08-12T13:00:06;8.75;;;2.17;;
20870;SDS011;10595;51.218;3.452;2023-08-12T13:02:36;9.98;;;2.33;;
20870;SDS011;10595;51.218;3.452;2023-08-12T13:05:02;7.78;;;2.20;;
20870;SDS011;10595;51.218;3.452;2023-08-12T13:07:28;7.85;;;2.20;;
20870;SDS011;10595;51.218;3.452;2023-08-12T13:09:54;7.70;;;2.28;;
20870;SDS011;10595;51.218;3.452;2023-08-12T13:12:20;9.25;;;2.15;;
20870;SDS011;10595;51.218;3.452;2023-08-12T13:14:46;8.55;;;2.40;;
20870;SDS011;10595;51.218;3.452;2023-08-12T13:17:12;10.75;;;2.47;;
20870;SDS011;10595;51.218;3.452;2023-08-12T13:19:38;5.72;;;1.63;;
20870;SDS011;10595;51.218;3.452;2023-08-12T13:22:04;7.72;;;2.28;;
20870;SDS011;10595;51.218;3.452;2023-08-12T13:24:30;8.05;;;1.80;;
20870;SDS011;10595;51.218;3.452;2023-08-12T13:26:56;8.18;;;2.35;;
20870;SDS011;10595;51.218;3.452;2023-08-12T13:29:22;10.27;;;2.00;;
20870;SDS011;10595;51.218;3.452;2023-08-12T13:31:49;4.32;;;1.80;;
20870;SDS011;10595;51.218;3.452;2023-08-12T13:34:15;8.38;;;2.35;;
20870;SDS011;10595;51.218;3.452;2023-08-12T13:36:41;6.32;;;2.08;;
20870;SDS011;10595;51.218;3.452;2023-08-12T13:39:07;7.80;;;2.40;;
20870;SDS011;10595;51.218;3.452;2023-08-12T13:41:33;12.82;;;2.72;;
20870;SDS011;10595;51.218;3.452;2023-08-12T13:43:59;5.95;;;2.00;;
20870;SDS011;10595;51.218;3.452;2023-08-12T13:46:25;7.95;;;2.10;;
20870;SDS011;10595;51.218;3.452;2023-08-12T13:48:52;8.63;;;2.58;;
20870;SDS011;10595;51.218;3.452;2023-08-12T13:51:18;5.38;;;2.00;;
20870;SDS011;10595;51.218;3.452;2023-08-12T13:53:44;6.97;;;1.77;;
20870;SDS011;10595;51.218;3.452;2023-08-12T13:56:10;6.38;;;1.73;;
20870;SDS011;10595;51.218;3.452;2023-08-12T13:58:36;8.57;;;1.88;;
20870;SDS011;10595;51.218;3.452;2023-08-12T14:01:02;5.70;;;2.00;;
20870;SDS011;10595;51.218;3.452;2023-08-12T14:03:28;4.97;;;1.85;;
20870;SDS011;10595;51.218;3.452;2023-08-12T14:05:55;7.10;;;1.92;;
20870;SDS011;10595;51.218;3.452;2023-08-12T14:08:21;8.18;;;1.95;;
20870;SDS011;10595;51.218;3.452;2023-08-12T14:10:47;6.35;;;1.90;;
20870;SDS011;10595;51.218;3.452;2023-08-12T14:13:15;5.53;;;1.90;;
20870;SDS011;10595;51.218;3.452;2023-08-12T14:15:41;5.95;;;1.83;;
20870;SDS011;10595;51.218;3.452;2023-08-12T14:18:07;4.90;;;1.60;;
20870;SDS011;10595;51.218;3.452;2023-08-12T14:20:33;6.72;;;1.70;;
20870;SDS011;10595;51.218;3.452;2023-08-12T14:22:59;7.20;;;2.13;;
20870;SDS011;10595;51.218;3.452;2023-08-12T14:25:25;4.63;;;1.95;;
20870;SDS011;10595;51.218;3.452;2023-08-12T14:27:51;6.25;;;1.58;;
20870;SDS011;10595;51.218;3.452;2023-08-12T14:30:18;7.03;;;1.65;;
20870;SDS011;10595;51.218;3.452;2023-08-12T14:32:47;3.63;;;1.57;;
20870;SDS011;10595;51.218;3.452;2023-08-12T14:35:13;7.87;;;1.90;;
20870;SDS011;10595;51.218;3.452;2023-08-12T14:37:39;6.30;;;2.00;;
20870;SDS011;10595;51.218;3.452;2023-08-12T14:40:05;6.05;;;1.75;;
20870;SDS011;10595;51.218;3.452;2023-08-12T14:42:32;6.73;;;1.60;;
20870;SDS011;10595;51.218;3.452;2023-08-12T14:44:58;6.65;;;1.88;;
20870;SDS011;10595;51.218;3.452;2023-08-12T14:47:24;6.45;;;1.95;;
20870;SDS011;10595;51.218;3.452;2023-08-12T14:49:50;7.65;;;1.85;;
20870;SDS011;10595;51.218;3.452;2023-08-12T14:52:18;4.93;;;1.92;;
20870;SDS011;10595;51.218;3.452;2023-08-12T14:54:45;4.63;;;1.60;;
20870;SDS011;10595;51.218;3.452;2023-08-12T14:57:11;7.68;;;1.90;;